Central Oregon RPC :: JUNTURA B

liberation: 2021-08-28  07:30     latitude: 43.744233     longitude: -118.077333 183 birds
# LOFT PRING MILES ARRIVAL SPEED ToWin
1 RUETER FAMILY LOFT AU21-CORP-884 159.534 2021-08-28 10:42:56.442 1455.262 00:00:00
2 RUETER FAMILY LOFT AU21-CORP-959 159.534 2021-08-28 10:43:06.715 1453.972 00:00:10
3 TOPIGEONUSA AU21-MDC-1223 161.026 2021-08-28 10:47:04.716 1438.034 00:02:20
4 TOPIGEONUSA AU21-MDC-1211 161.026 2021-08-28 10:47:05.835 1437.898 00:02:21
5 TOPIGEONUSA AU21-MDC-1204 161.026 2021-08-28 10:47:06.598 1437.805 00:02:22
6 STEELE LOFT AU21-CORP-0121 162.06 2021-08-28 10:48:30.744 1436.815 00:02:31
7 RUETER FAMILY LOFT AU21-CORP-802 159.534 2021-08-28 10:45:25.267 1436.791 00:02:29
8 RUETER FAMILY LOFT AU21-CORP-812 159.534 2021-08-28 10:45:59.141 1432.652 00:03:03
9 ROCKY TOP AU21-JEDD-11825 152.796 2021-08-28 10:37:59.005 1430.561 00:03:11
10 ROCKY TOP AU21-RARE-0008 152.796 2021-08-28 10:37:59.814 1430.458 00:03:12
11 ROCKY TOP AU21-CORP-0704 152.796 2021-08-28 10:38:00.459 1430.376 00:03:13
12 ROCKY TOP AU21-ARPU-11209 152.796 2021-08-28 10:38:02.861 1430.072 00:03:15
13 ROCKY TOP AU21-ARPU-11217 152.796 2021-08-28 10:38:03.365 1430.008 00:03:16
14 TOPIGEONUSA AU21-JEDD-11883 161.026 2021-08-28 10:50:01.582 1416.842 00:05:17
15 ROCKY TOP AU21-JEDD-11824 152.796 2021-08-28 10:39:53.937 1416.131 00:05:06
16 ROCKY TOP AU21-ARPU-11208 152.796 2021-08-28 10:40:00.658 1415.296 00:05:13
17 LUCAS CRAMER AU21-CORP-403 161.193 2021-08-28 10:51:33.640 1407.512 00:06:37
18 AMERICAN LOFT AU21-CORP-0347 143.717 2021-08-28 10:29:42.813 1407.476 00:05:54
19 STEELE LOFT AU21-CORP-0167 162.06 2021-08-28 10:52:46.321 1406.632 00:06:47
20 AMERICAN LOFT AU21-CORP-0330 143.717 2021-08-28 10:29:50.208 1406.511 00:06:01
21 AMERICAN LOFT AU21-CORP-0326 143.717 2021-08-28 10:29:52.958 1406.153 00:06:04
22 STEELE LOFT AU21-BORD-21047 162.06 2021-08-28 10:52:51.326 1406.053 00:06:52
23 AMERICAN LOFT AU21-CORP-0332 143.717 2021-08-28 10:29:54.611 1405.938 00:06:06
24 STEELE LOFT AU21-CORP-0200 162.06 2021-08-28 10:52:57.103 1405.386 00:06:57
25 LUCAS CRAMER AU21-CORP-405 161.193 2021-08-28 10:51:52.840 1405.281 00:06:56
26 TOPIGEONUSA AU21-JEDD-1174 161.026 2021-08-28 10:51:46.400 1404.575 00:07:02
27 STEELE LOFT AU21-CORP-0161 162.06 2021-08-28 10:53:36.436 1400.861 00:07:37
28 STEELE LOFT AU21-CORP-0185 162.06 2021-08-28 10:54:47.489 1392.761 00:08:48
29 ROCKY TOP AU21-CORP-0712 152.796 2021-08-28 10:43:31.299 1389.621 00:08:44
30 whistling wings AU21-CORP-0938 161.025 2021-08-28 10:55:17.556 1380.485 00:10:33
31 RUETER FAMILY LOFT AU21-CORP-953 159.534 2021-08-28 10:53:50.899 1377.393 00:10:54
32 RUETER FAMILY LOFT AU21-CORP-949 159.534 2021-08-28 10:54:06.309 1375.660 00:11:10
33 whistling wings AU21-CORP-0265 161.025 2021-08-28 10:56:05.172 1375.169 00:11:21
34 RUETER FAMILY LOFT AU21-CORP-832 159.534 2021-08-28 10:54:12.428 1374.973 00:11:16
35 RUETER FAMILY LOFT AU21-CORP-809 159.534 2021-08-28 10:54:13.333 1374.872 00:11:17
36 whistling wings AU21-CORP-0928 161.025 2021-08-28 10:56:08.791 1374.766 00:11:24
37 whistling wings AU21-CORP-0939 161.025 2021-08-28 10:56:12.257 1374.381 00:11:28
38 STEELE LOFT AU21-CORP-0145 162.06 2021-08-28 10:58:16.064 1369.514 00:12:16
39 AMERICAN LOFT AU21-CORP-0322 143.717 2021-08-28 10:35:28.997 1363.694 00:11:40
40 AMERICAN LOFT AU21-CORP-0367 143.717 2021-08-28 10:35:41.888 1362.117 00:11:53
41 AMERICAN LOFT AU21-CORP-0368 143.717 2021-08-28 10:35:46.171 1361.593 00:11:57
42 AMERICAN LOFT AU21-CORP-0358 143.717 2021-08-28 10:35:50.355 1361.082 00:12:02
43 RUETER FAMILY LOFT AU21-CORP-850 159.534 2021-08-28 10:56:26.950 1360.041 00:13:31
44 RUETER FAMILY LOFT AU21-CORP-873 159.534 2021-08-28 10:56:29.326 1359.780 00:13:33
45 RUETER FAMILY LOFT AU21-CORP-971 159.534 2021-08-28 10:56:33.719 1359.298 00:13:37
46 RUETER FAMILY LOFT AU21-CORP-942 159.534 2021-08-28 10:56:34.323 1359.232 00:13:38
47 RUETER FAMILY LOFT AU21-CORP-951 159.534 2021-08-28 10:56:40.627 1358.541 00:13:44
48 RUETER FAMILY LOFT AU21-CORP-892 159.534 2021-08-28 10:56:49.389 1357.582 00:13:53
49 RUETER FAMILY LOFT AU21-CORP-860 159.534 2021-08-28 10:56:57.237 1356.724 00:14:01
50 RUETER FAMILY LOFT AU21-CORP-861 159.534 2021-08-28 10:57:29.891 1353.165 00:14:33
51 ROCKY TOP AU21-PNW-3508 152.796 2021-08-28 10:49:45.338 1346.253 00:14:58
52 ROCKY TOP AU21-CORP-0744 152.796 2021-08-28 10:49:46.639 1346.107 00:14:59
53 LUCAS CRAMER AU21-CORP-435 161.193 2021-08-28 11:00:50.662 1345.538 00:15:54
54 ROCKY TOP AU21-CORP-0754 152.796 2021-08-28 10:49:51.817 1345.526 00:15:04
55 LUCAS CRAMER AU21-CORP-413 161.193 2021-08-28 11:01:02.144 1344.318 00:16:05
56 LUCAS CRAMER AU21-CORP-459 161.193 2021-08-28 11:01:05.463 1343.966 00:16:09
57 LUCAS CRAMER AU21-CORP-429 161.193 2021-08-28 11:01:10.385 1343.444 00:16:14
58 TOPIGEONUSA AU21-CORP-1013 161.026 2021-08-28 11:01:17.867 1341.262 00:16:33
59 STEELE LOFT AU21-CORP-0127 162.06 2021-08-28 11:05:11.185 1325.481 00:19:11
60 STEELE LOFT AU21-CORP-0141 162.06 2021-08-28 11:05:16.392 1324.947 00:19:17
61 AMERICAN LOFT AU21-CORP-0349 143.717 2021-08-28 10:41:08.019 1323.380 00:17:19
62 AMERICAN LOFT AU21-CORP-0311 143.717 2021-08-28 10:41:09.878 1323.166 00:17:21
63 AMERICAN LOFT AU21-CORP-0379 143.717 2021-08-28 10:41:13.424 1322.757 00:17:25
64 AMERICAN LOFT AU21-CORP-0374 143.717 2021-08-28 10:41:14.022 1322.688 00:17:25
65 AMERICAN LOFT AU21-CORP-0305 143.717 2021-08-28 10:41:18.219 1322.204 00:17:29
66 AMERICAN LOFT AU21-CORP-0356 143.717 2021-08-28 10:41:18.809 1322.136 00:17:30
67 AMERICAN LOFT AU21-CORP-0387 143.717 2021-08-28 10:41:22.055 1321.763 00:17:33
68 RUETER FAMILY LOFT AU21-CORP-824 159.534 2021-08-28 11:02:54.785 1318.751 00:19:58
69 LUCAS CRAMER AU21-CORP-448 161.193 2021-08-28 11:05:39.807 1315.471 00:20:43
70 LUCAS CRAMER AU21-CORP-452 161.193 2021-08-28 11:05:42.900 1315.157 00:20:46
71 LUCAS CRAMER AU21-CORP-449 161.193 2021-08-28 11:05:48.887 1314.549 00:20:52
72 RUETER FAMILY LOFT AU21-CORP-876 159.534 2021-08-28 11:03:36.230 1314.486 00:20:40
73 LUCAS CRAMER AU21-CORP-465 161.193 2021-08-28 11:07:03.488 1307.019 00:22:07
74 LUCAS CRAMER AU21-CORP-411 161.193 2021-08-28 11:07:07.610 1306.605 00:22:11
75 LUCAS CRAMER AU21-CORP-442 161.193 2021-08-28 11:07:13.461 1306.019 00:22:17
76 LUCAS CRAMER AU21-CORP-464 161.193 2021-08-28 11:07:14.631 1305.902 00:22:18
77 LUCAS CRAMER AU21-CORP-453 161.193 2021-08-28 11:07:22.642 1305.100 00:22:26
78 LUCAS CRAMER AU21-CORP-454 161.193 2021-08-28 11:07:30.070 1304.357 00:22:33
79 LUCAS CRAMER AU21-CORP-461 161.193 2021-08-28 11:09:12.016 1294.246 00:24:15
80 RUETER FAMILY LOFT AU21-CORP-940 159.534 2021-08-28 11:08:18.805 1286.130 00:25:22
81 LUCAS CRAMER AU21-CORP-434 161.193 2021-08-28 11:12:20.380 1275.972 00:27:24
82 LUCAS CRAMER AU21-CORP-401 161.193 2021-08-28 11:12:31.863 1274.874 00:27:35
83 whistling wings AU21-CORP-0264 161.025 2021-08-28 11:13:41.579 1266.930 00:28:57
84 whistling wings AU21-CORP-1101 161.025 2021-08-28 11:13:46.236 1266.490 00:29:02
85 whistling wings AU21-CORP-0254 161.025 2021-08-28 11:13:46.601 1266.456 00:29:02
86 STEELE LOFT AU21-BORD-21053 162.06 2021-08-28 11:16:29.129 1259.355 00:30:29
87 AMERICAN LOFT AU21-CORP-034O 143.717 2021-08-28 10:53:33.294 1242.626 00:29:45
88 STEELE LOFT AU21-CORP-0104 162.06 2021-08-28 11:19:40.170 1241.896 00:33:40
89 LUCAS CRAMER AU21-CORP-444 161.193 2021-08-28 11:18:48.935 1239.859 00:33:52
90 RUETER FAMILY LOFT AU21-CORP-811 159.534 2021-08-28 11:16:29.489 1239.691 00:33:33
91 TOPIGEONUSA AU21-MDC-1219 161.026 2021-08-28 11:18:40.959 1239.297 00:33:56
92 RUETER FAMILY LOFT AU21-CORP-912 159.534 2021-08-28 11:16:38.045 1238.910 00:33:42
93 TOPIGEONUSA AU21-CORP-0697 161.026 2021-08-28 11:19:00.930 1237.496 00:34:16
94 TOPIGEONUSA AU21-CORP-0196 161.026 2021-08-28 11:19:03.801 1237.237 00:34:19
95 LUCAS CRAMER AU21-CORP-404 161.193 2021-08-28 11:19:36.811 1235.551 00:34:40
96 RUETER FAMILY LOFT AU21-CORP-950 159.534 2021-08-28 11:17:31.657 1234.045 00:34:35
97 whistling wings AU21-CORP-1103 161.025 2021-08-28 11:23:22.790 1214.344 00:38:38
98 whistling wings AU21-CORP-1102 161.025 2021-08-28 11:23:41.354 1212.736 00:38:57
99 STEELE LOFT AU21-BORD-21046 162.06 2021-08-28 11:26:34.628 1205.634 00:40:35
100 STEELE LOFT AU21-CORP-0147 162.06 2021-08-28 11:26:35.302 1205.577 00:40:36
101 STEELE LOFT AU21-CORP-0195 162.06 2021-08-28 11:26:39.083 1205.256 00:40:39
102 STEELE LOFT AU21-CORP-0122 162.06 2021-08-28 11:26:45.222 1204.735 00:40:45
103 TOPIGEONUSA AU21-JEDD-11899 161.026 2021-08-28 11:25:45.644 1202.091 00:41:01
104 TOPIGEONUSA AU21-JEDD-11820 161.026 2021-08-28 11:25:47.255 1201.954 00:41:03
105 AMERICAN LOFT AU21-CORP-0354 143.717 2021-08-28 11:04:06.717 1181.356 00:40:18
106 AMERICAN LOFT AU21-CORP-0342 143.717 2021-08-28 11:04:08.078 1181.231 00:40:19
107 AMERICAN LOFT AU21-CORP-0329 143.717 2021-08-28 11:04:12.480 1180.827 00:40:24
108 AMERICAN LOFT AU21-CORP-0350 143.717 2021-08-28 11:04:12.881 1180.790 00:40:24
109 AMERICAN LOFT AU21-CORP-0345 143.717 2021-08-28 11:04:19.884 1180.147 00:40:31
110 AMERICAN LOFT AU21-CORP-0389 143.717 2021-08-28 11:04:23.769 1179.790 00:40:35
111 AMERICAN LOFT AU21-CORP-0314 143.717 2021-08-28 11:04:33.136 1178.932 00:40:44
112 LUCAS CRAMER AU21-CORP-458 161.193 2021-08-28 11:34:00.689 1162.647 00:49:04
113 ROCKY TOP AU21-PNW-3505 152.796 2021-08-28 11:25:12.397 1143.342 00:50:25
114 AMERICAN LOFT AU21-CORP-0371 143.717 2021-08-28 11:13:22.192 1132.393 00:49:33
115 LUCAS CRAMER AU21-CORP-445 161.193 2021-08-28 11:40:46.883 1131.261 00:55:50
116 STEELE LOFT AU21-CORP-0120 162.06 2021-08-28 11:43:07.550 1126.813 00:57:08
117 RUETER FAMILY LOFT AU21-CORP-915 159.534 2021-08-28 11:39:31.848 1125.229 00:56:35
118 whistling wings AU21-CORP-0781 161.025 2021-08-28 11:43:07.501 1119.618 00:58:23
119 whistling wings AU21-CORP-0946 161.025 2021-08-28 11:43:27.352 1118.156 00:58:43
120 whistling wings AU21-CORP-0767 161.025 2021-08-28 11:43:31.958 1117.818 00:58:47
121 ROCKY TOP AU21-RARE-0009 152.796 2021-08-28 11:35:02.691 1097.439 01:00:15
122 ROCKY TOP AU21-ARPU-11214 152.796 2021-08-28 11:37:04.143 1088.448 01:02:17
123 STEELE LOFT AU21-CORP-0142 162.06 2021-08-28 11:53:35.622 1082.065 01:07:36
124 whistling wings AU21-CORP-0766 161.025 2021-08-28 11:52:07.427 1081.181 01:07:23
125 RUETER FAMILY LOFT AU21-CORP-965 159.534 2021-08-28 11:50:35.106 1077.496 01:07:39
126 AMERICAN LOFT AU21-CORP-0341 143.717 2021-08-28 11:24:47.037 1077.342 01:00:58
127 RUETER FAMILY LOFT AU21-CORP-964 159.534 2021-08-28 11:50:58.594 1075.880 01:08:02
128 ROCKY TOP AU21-JEDD-11827 152.796 2021-08-28 11:40:53.698 1071.850 01:06:06
129 LUCAS CRAMER AU21-ARC-5149 161.193 2021-08-28 12:01:25.113 1045.246 01:16:28
130 TOPIGEONUSA AU21-MDC-1225 161.026 2021-08-28 12:02:55.250 1038.417 01:18:11
131 AMERICAN LOFT AU21-CORP-0365 143.717 2021-08-28 11:33:44.579 1037.743 01:09:56
132 ROCKY TOP AU21-CORP-0762 152.796 2021-08-28 11:52:13.052 1025.567 01:17:25
133 ROCKY TOP AU21-JEDD-11826 152.796 2021-08-28 11:52:17.318 1025.289 01:17:30
134 ROCKY TOP AU21-ARPU-11232 152.796 2021-08-28 11:59:20.919 998.415 01:24:33
135 LUCAS CRAMER AU21-CORP-408 161.193 2021-08-28 12:15:58.789 992.025 01:31:02
136 LUCAS CRAMER AU21-CORP-462 161.193 2021-08-28 12:15:59.174 992.003 01:31:02
137 whistling wings AU21-CORP-0260 161.025 2021-08-28 12:24:17.770 962.987 01:39:33
138 RUETER FAMILY LOFT AU21-CORP-803 159.534 2021-08-28 12:22:21.595 960.389 01:39:25
139 RUETER FAMILY LOFT AU21-CORP-900 159.534 2021-08-28 12:32:22.207 928.595 01:49:26
140 RUETER FAMILY LOFT AU21-CORP-821 159.534 2021-08-28 12:52:43.217 870.039 02:09:47
141 STEELE LOFT AU21-CORP-0129 162.06 2021-08-28 13:02:56.524 856.682 02:16:57
142 STEELE LOFT AU21-CORP-0177 162.06 2021-08-28 13:03:38.460 854.888 02:17:39
143 TOPIGEONUSA AU21-JEDD-1191 161.026 2021-08-28 13:06:58.513 841.028 02:22:14
144 RUETER FAMILY LOFT AU21-CORP-920 159.534 2021-08-28 13:33:14.855 772.970 02:50:18
145 RUETER FAMILY LOFT AU21-CORP-968 159.534 2021-08-28 13:33:59.869 771.376 02:51:03
146 AMERICAN LOFT AU21-CORP-0331 143.717 2021-08-28 14:23:36.917 611.541 03:59:48
147 AMERICAN LOFT AU21-CORP-0359 143.717 2021-08-28 14:25:17.824 609.064 04:01:29
148 RUETER FAMILY LOFT AU21-CORP-895 159.534 2021-08-28 15:41:50.053 570.882 04:58:54
149 STEELE LOFT AU21-CORP-0124 162.06 2021-08-28 16:05:47.601 552.984 05:19:48
150 RUETER FAMILY LOFT AU21-CORP-947 159.534 2021-08-28 16:22:36.726 527.174 05:39:40
151 RUETER FAMILY LOFT AU21-CORP-822 159.534 2021-08-28 16:23:07.963 526.659 05:40:12
152 TOPIGEONUSA AU21-CORP-0144 161.026 2021-08-28 16:39:30.133 515.750 05:54:45
153 ROCKY TOP AU21-CORP-0774 152.796 2021-08-28 16:30:38.963 497.405 05:55:51
154 LUCAS CRAMER AU21-CORP-406 161.193 2021-08-28 17:04:22.376 493.928 06:19:26
155 STEELE LOFT AU21-CORP-0126 162.06 2021-08-28 18:12:02.959 444.242 07:26:03
156 STEELE LOFT AU21-CORP-0138 162.06 2021-08-28 18:31:15.744 431.335 07:45:16
157 STEELE LOFT AU21-CORP-0166 162.06 2021-08-28 18:31:17.631 431.314 07:45:18
158 AMERICAN LOFT AU21-CORP-0355 143.717 2021-08-28 18:13:05.914 393.318 07:49:17
159 AMERICAN LOFT AU21-CORP-0375 143.717 2021-08-28 19:07:40.440 362.551 08:43:52
160 LUCAS CRAMER AU21-CORP-414 161.193 2021-08-29 07:12:45.442 336.021 10:49:21
161 STEELE LOFT AU21-CORP-0112 162.06 2021-08-29 07:32:33.477 330.087 11:08:06
162 LUCAS CRAMER AU21-CORP-466 161.193 2021-08-29 07:42:25.747 324.612 11:19:01
163 RUETER FAMILY LOFT AU21-CORP-966 159.534 2021-08-29 08:11:07.212 311.060 11:49:43
164 STEELE LOFT AU21-CORP-0109 162.06 2021-08-29 08:39:35.966 306.321 12:15:08
165 STEELE LOFT AU21-CORP-0197 162.06 2021-08-29 08:49:36.459 303.064 12:25:09
166 STEELE LOFT AU21-CORP-0105 162.06 2021-08-29 08:51:13.374 302.544 12:26:46
167 STEELE LOFT AU21-CORP-0116 162.06 2021-08-29 09:45:34.904 286.051 13:21:07
168 STEELE LOFT AU21-CORP-0181 162.06 2021-08-29 10:51:15.925 268.372 14:26:48
169 ROCKY TOP AU21-ARPU-11206 152.796 2021-08-30 06:39:40.943 161.042 24:45:06
170 STEELE LOFT AU21-CORP-0111 162.06 2021-08-30 10:07:51.335 151.873 28:02:03
LUCAS CRAMER AU21-CORP-451 0 0000-00-00 00:00:00.000 0.000 00:00:00
ROCKY TOP AU21-ARPU-11213 0 0000-00-00 00:00:00.000 0.000 00:00:00
ROCKY TOP AU21-CORP-0701 0 0000-00-00 00:00:00.000 0.000 00:00:00
ROCKY TOP AU21-PNW-3502 0 0000-00-00 00:00:00.000 0.000 00:00:00
RUETER FAMILY LOFT AU21-CORP-817 0 0000-00-00 00:00:00.000 0.000 00:00:00
RUETER FAMILY LOFT AU21-CORP-819 0 0000-00-00 00:00:00.000 0.000 00:00:00
RUETER FAMILY LOFT AU21-CORP-871 0 0000-00-00 00:00:00.000 0.000 00:00:00
RUETER FAMILY LOFT AU21-CORP-893 0 0000-00-00 00:00:00.000 0.000 00:00:00
RUETER FAMILY LOFT AU21-CORP-954 0 0000-00-00 00:00:00.000 0.000 00:00:00
STEELE LOFT AU21-CORP-0108 0 0000-00-00 00:00:00.000 0.000 00:00:00
STEELE LOFT AU21-CORP-0175 0 0000-00-00 00:00:00.000 0.000 00:00:00
TOPIGEONUSA AU21-CORP-1010 0 0000-00-00 00:00:00.000 0.000 00:00:00
TOPIGEONUSA AU21-JEDD-11881 0 0000-00-00 00:00:00.000 0.000 00:00:00